aviador You're here:

KMEI Decoded Metar

MERIDIAN/KEY FLD in MS, USA
Report Time2018-05-21 16:28:00
UTC Time2018-05-21 16:50:44
Flight Rules mvfr MVFR
WindVRB at 04 kt
Visibility9999 m
Phenomena:N/A
Clouds:Broken 018 Hf
Expected CloudBase > 2,400 ft AGL from Temp-Dew spread
Ceiling1,800 ft
Temp27°C (ISA +13)
Dew Point21°C (70% RH)
Heat Index28.9°C
QNH1019 hPa
Density Alt1,870 ft
Elevation292 ft
Report Wrong Elevation
Raw Report
KMEI 211628Z VRB04KT 10SM BKN018 27/21 A3009 RMK AO2 T02720211=

Extra information for KMEI:More info

Metar Taf Metar & Taf Last 4 Metars F.Rules Stats Wind Profile Meteogram Temp Stats Airport Information Weather charts Add Link Nearby VenuesMetar ALERT Operation Metar Decoded Social comments

AIRNAV info for KMEI